Clear Sky Lodge Airport


Codes: CLF/
Name: Clear Sky Lodge Airport
City: Clear
Country: United States
Elevation: 650 ft.
Wikipedia:

Photos at Clear Sky Lodge Airport


   Photos courtesy of SpottingLog. You can add your own sightings and photos by signing up for a free trial today.



No photos found.

Weather at Clear Sky Lodge Airport


Time (UTC)DescriptionTempratureWindCloud coverageVisibilityPressureHumidity
26-Jun-2024 00:00Scattered Clouds24°C4 mph, E31%10000m1014hPa35%
26-Jun-2024 03:00Scattered Clouds25°C7 mph, SE28%10000m1013hPa36%
26-Jun-2024 06:00Scattered Clouds21°C2 mph, E29%10000m1011hPa57%
26-Jun-2024 09:00Few Clouds16°C4 mph, S19%10000m1012hPa70%
26-Jun-2024 12:00Clear Sky14°C4 mph, S10%10000m1012hPa74%
26-Jun-2024 15:00Clear Sky17°C2 mph, SE0%10000m1012hPa63%
26-Jun-2024 18:00Clear Sky22°C4 mph, NE0%10000m1010hPa48%
26-Jun-2024 21:00Clear Sky27°C7 mph, NE0%10000m1009hPa37%
27-Jun-2024 00:00Clear Sky29°C7 mph, NE0%10000m1007hPa28%
27-Jun-2024 03:00Light Rain19°C13 mph, S35%6422m1008hPa62%
27-Jun-2024 06:00Light Rain16°C7 mph, S67%10000m1007hPa86%
27-Jun-2024 09:00Light Rain15°C4 mph, SE74%10000m1007hPa85%
27-Jun-2024 12:00Light Rain14°C7 mph, S82%10000m1008hPa90%
27-Jun-2024 15:00Light Rain15°C4 mph, S88%10000m1008hPa86%
27-Jun-2024 18:00Light Rain21°C2 mph, W93%10000m1009hPa57%
27-Jun-2024 21:00Broken Clouds24°C4 mph, NW53%10000m1008hPa41%
28-Jun-2024 00:00Scattered Clouds26°C7 mph, NW33%10000m1006hPa36%
28-Jun-2024 03:00Broken Clouds23°C4 mph, W62%10000m1006hPa48%
28-Jun-2024 06:00Light Rain17°C9 mph, SE80%5516m1007hPa82%
28-Jun-2024 09:00Moderate Rain14°C7 mph, S100%10000m1009hPa95%
28-Jun-2024 12:00Light Rain13°C4 mph, S96%10000m1010hPa95%
28-Jun-2024 15:00Broken Clouds15°C4 mph, SW63%10000m1010hPa90%
28-Jun-2024 18:00Broken Clouds18°C7 mph, W79%10000m1010hPa64%
28-Jun-2024 21:00Overcast Clouds21°C7 mph, W100%10000m1010hPa52%
29-Jun-2024 00:00Overcast Clouds23°C4 mph, NW100%10000m1009hPa43%
29-Jun-2024 03:00Overcast Clouds23°C2 mph, NW100%10000m1008hPa43%
29-Jun-2024 06:00Overcast Clouds20°C2 mph, SW100%10000m1009hPa65%
29-Jun-2024 09:00Light Rain15°C4 mph, S100%10000m1009hPa83%
29-Jun-2024 12:00Overcast Clouds14°C4 mph, S100%10000m1009hPa84%
29-Jun-2024 15:00Overcast Clouds17°C2 mph, S99%10000m1009hPa74%
29-Jun-2024 18:00Overcast Clouds22°C2 mph, NW99%10000m1008hPa52%
29-Jun-2024 21:00Overcast Clouds25°C4 mph, NE100%10000m1008hPa43%
30-Jun-2024 00:00Broken Clouds27°C4 mph, NE82%10000m1006hPa36%
30-Jun-2024 03:00Overcast Clouds26°C2 mph, N93%10000m1006hPa43%
30-Jun-2024 06:00Broken Clouds22°C4 mph, NW73%10000m1006hPa60%
30-Jun-2024 09:00Scattered Clouds17°C4 mph, S33%10000m1007hPa69%
30-Jun-2024 12:00Scattered Clouds15°C4 mph, S38%10000m1007hPa76%
30-Jun-2024 15:00Overcast Clouds19°C2 mph, SW85%10000m1008hPa69%
30-Jun-2024 18:00Overcast Clouds23°C4 mph, NW89%10000m1008hPa49%
30-Jun-2024 21:00Overcast Clouds26°C4 mph, N100%10000m1008hPa38%